sensor_id;sensor_type;location;lat;lon;timestamp;P1;durP1;ratioP1;P2;durP2;ratioP2
7667;SDS011;3876;42.204;24.686;2023-08-31T00:02:07;0.80;;;0.80;;
7667;SDS011;3876;42.204;24.686;2023-08-31T00:04:34;1.00;;;1.00;;
7667;SDS011;3876;42.204;24.686;2023-08-31T00:07:02;2.37;;;1.00;;
7667;SDS011;3876;42.204;24.686;2023-08-31T00:09:29;1.10;;;1.10;;
7667;SDS011;3876;42.204;24.686;2023-08-31T00:11:56;1.80;;;1.10;;
7667;SDS011;3876;42.204;24.686;2023-08-31T00:14:23;1.53;;;1.43;;
7667;SDS011;3876;42.204;24.686;2023-08-31T00:16:51;1.00;;;1.00;;
7667;SDS011;3876;42.204;24.686;2023-08-31T00:19:18;0.90;;;0.90;;
7667;SDS011;3876;42.204;24.686;2023-08-31T00:21:45;2.07;;;1.00;;
7667;SDS011;3876;42.204;24.686;2023-08-31T00:24:15;1.27;;;0.93;;
7667;SDS011;3876;42.204;24.686;2023-08-31T00:26:41;2.73;;;1.00;;
7667;SDS011;3876;42.204;24.686;2023-08-31T00:29:08;2.13;;;1.40;;
7667;SDS011;3876;42.204;24.686;2023-08-31T00:31:36;1.40;;;1.23;;
7667;SDS011;3876;42.204;24.686;2023-08-31T00:34:02;1.27;;;1.27;;
7667;SDS011;3876;42.204;24.686;2023-08-31T00:36:29;2.30;;;1.57;;
7667;SDS011;3876;42.204;24.686;2023-08-31T00:38:56;3.50;;;1.40;;
7667;SDS011;3876;42.204;24.686;2023-08-31T00:41:24;1.83;;;1.73;;
7667;SDS011;3876;42.204;24.686;2023-08-31T00:43:51;1.03;;;1.03;;
7667;SDS011;3876;42.204;24.686;2023-08-31T00:46:18;0.77;;;0.77;;
7667;SDS011;3876;42.204;24.686;2023-08-31T00:48:45;0.90;;;0.90;;
7667;SDS011;3876;42.204;24.686;2023-08-31T00:51:12;5.20;;;1.47;;
7667;SDS011;3876;42.204;24.686;2023-08-31T00:53:38;2.70;;;1.00;;
7667;SDS011;3876;42.204;24.686;2023-08-31T00:56:06;3.07;;;1.33;;
7667;SDS011;3876;42.204;24.686;2023-08-31T00:58:35;1.00;;;1.00;;
7667;SDS011;3876;42.204;24.686;2023-08-31T01:01:04;0.60;;;0.60;;
7667;SDS011;3876;42.204;24.686;2023-08-31T01:03:39;5.77;;;0.80;;
7667;SDS011;3876;42.204;24.686;2023-08-31T01:06:12;0.97;;;0.93;;
7667;SDS011;3876;42.204;24.686;2023-08-31T01:08:47;2.47;;;1.13;;
7667;SDS011;3876;42.204;24.686;2023-08-31T01:11:21;0.70;;;0.70;;
7667;SDS011;3876;42.204;24.686;2023-08-31T01:14:00;0.93;;;0.93;;
7667;SDS011;3876;42.204;24.686;2023-08-31T01:16:29;1.50;;;1.40;;
7667;SDS011;3876;42.204;24.686;2023-08-31T01:19:00;0.83;;;0.83;;
7667;SDS011;3876;42.204;24.686;2023-08-31T01:21:33;1.27;;;1.17;;
7667;SDS011;3876;42.204;24.686;2023-08-31T01:24:05;0.87;;;0.87;;
7667;SDS011;3876;42.204;24.686;2023-08-31T01:26:32;0.80;;;0.80;;
7667;SDS011;3876;42.204;24.686;2023-08-31T01:28:59;2.47;;;1.00;;
7667;SDS011;3876;42.204;24.686;2023-08-31T01:31:26;1.07;;;1.07;;
7667;SDS011;3876;42.204;24.686;2023-08-31T01:33:54;1.00;;;1.00;;
7667;SDS011;3876;42.204;24.686;2023-08-31T01:36:23;1.00;;;1.00;;
7667;SDS011;3876;42.204;24.686;2023-08-31T01:38:54;0.80;;;0.80;;
7667;SDS011;3876;42.204;24.686;2023-08-31T01:41:29;0.80;;;0.80;;
7667;SDS011;3876;42.204;24.686;2023-08-31T01:44:00;0.77;;;0.73;;
7667;SDS011;3876;42.204;24.686;2023-08-31T01:46:27;1.67;;;1.10;;
7667;SDS011;3876;42.204;24.686;2023-08-31T01:48:55;0.70;;;0.70;;
7667;SDS011;3876;42.204;24.686;2023-08-31T01:51:22;0.80;;;0.80;;
7667;SDS011;3876;42.204;24.686;2023-08-31T01:53:49;0.80;;;0.80;;
7667;SDS011;3876;42.204;24.686;2023-08-31T01:56:16;1.03;;;1.03;;
7667;SDS011;3876;42.204;24.686;2023-08-31T01:58:44;1.07;;;0.90;;
7667;SDS011;3876;42.204;24.686;2023-08-31T02:01:11;0.70;;;0.70;;
7667;SDS011;3876;42.204;24.686;2023-08-31T02:03:38;1.00;;;1.00;;
7667;SDS011;3876;42.204;24.686;2023-08-31T02:06:05;0.97;;;0.97;;
7667;SDS011;3876;42.204;24.686;2023-08-31T02:08:32;0.73;;;0.73;;
7667;SDS011;3876;42.204;24.686;2023-08-31T02:10:58;2.73;;;1.30;;
7667;SDS011;3876;42.204;24.686;2023-08-31T02:13:25;1.60;;;0.80;;
7667;SDS011;3876;42.204;24.686;2023-08-31T02:15:53;1.10;;;1.10;;
7667;SDS011;3876;42.204;24.686;2023-08-31T02:18:20;0.90;;;0.90;;
7667;SDS011;3876;42.204;24.686;2023-08-31T02:20:47;1.57;;;0.90;;
7667;SDS011;3876;42.204;24.686;2023-08-31T02:23:14;1.03;;;1.03;;
7667;SDS011;3876;42.204;24.686;2023-08-31T02:25:40;1.77;;;1.03;;
7667;SDS011;3876;42.204;24.686;2023-08-31T02:28:07;1.17;;;0.83;;
7667;SDS011;3876;42.204;24.686;2023-08-31T02:30:34;1.60;;;0.93;;
7667;SDS011;3876;42.204;24.686;2023-08-31T02:33:02;2.10;;;1.40;;
7667;SDS011;3876;42.204;24.686;2023-08-31T02:35:30;0.87;;;0.87;;
7667;SDS011;3876;42.204;24.686;2023-08-31T02:37:56;0.97;;;0.97;;
7667;SDS011;3876;42.204;24.686;2023-08-31T02:40:23;1.70;;;0.80;;
7667;SDS011;3876;42.204;24.686;2023-08-31T02:42:50;0.70;;;0.70;;
7667;SDS011;3876;42.204;24.686;2023-08-31T02:45:17;0.87;;;0.87;;
7667;SDS011;3876;42.204;24.686;2023-08-31T02:47:44;0.60;;;0.60;;
7667;SDS011;3876;42.204;24.686;2023-08-31T02:50:12;0.60;;;0.60;;
7667;SDS011;3876;42.204;24.686;2023-08-31T02:52:39;1.07;;;1.00;;
7667;SDS011;3876;42.204;24.686;2023-08-31T02:55:07;0.90;;;0.90;;
7667;SDS011;3876;42.204;24.686;2023-08-31T02:57:35;1.20;;;1.20;;
7667;SDS011;3876;42.204;24.686;2023-08-31T03:00:02;0.67;;;0.60;;
7667;SDS011;3876;42.204;24.686;2023-08-31T03:02:34;0.70;;;0.70;;
7667;SDS011;3876;42.204;24.686;2023-08-31T03:05:01;0.80;;;0.80;;
7667;SDS011;3876;42.204;24.686;2023-08-31T03:07:31;1.17;;;1.07;;
7667;SDS011;3876;42.204;24.686;2023-08-31T03:09:57;2.53;;;0.77;;
7667;SDS011;3876;42.204;24.686;2023-08-31T03:12:24;2.47;;;0.80;;
7667;SDS011;3876;42.204;24.686;2023-08-31T03:14:51;1.03;;;1.03;;
7667;SDS011;3876;42.204;24.686;2023-08-31T03:17:18;0.97;;;0.97;;
7667;SDS011;3876;42.204;24.686;2023-08-31T03:19:44;0.90;;;0.90;;
7667;SDS011;3876;42.204;24.686;2023-08-31T03:22:11;1.13;;;1.10;;
7667;SDS011;3876;42.204;24.686;2023-08-31T03:24:39;2.93;;;1.13;;
7667;SDS011;3876;42.204;24.686;2023-08-31T03:27:06;0.87;;;0.87;;
7667;SDS011;3876;42.204;24.686;2023-08-31T03:29:33;0.80;;;0.80;;
7667;SDS011;3876;42.204;24.686;2023-08-31T03:32:00;0.73;;;0.73;;
7667;SDS011;3876;42.204;24.686;2023-08-31T03:34:28;1.50;;;1.40;;
7667;SDS011;3876;42.204;24.686;2023-08-31T03:36:55;1.73;;;1.63;;
7667;SDS011;3876;42.204;24.686;2023-08-31T03:39:23;1.10;;;1.10;;
7667;SDS011;3876;42.204;24.686;2023-08-31T03:41:51;1.43;;;1.40;;
7667;SDS011;3876;42.204;24.686;2023-08-31T03:44:17;1.30;;;1.20;;
7667;SDS011;3876;42.204;24.686;2023-08-31T03:46:44;1.47;;;1.37;;
7667;SDS011;3876;42.204;24.686;2023-08-31T03:49:11;1.20;;;1.20;;
7667;SDS011;3876;42.204;24.686;2023-08-31T03:51:37;1.17;;;1.17;;
7667;SDS011;3876;42.204;24.686;2023-08-31T03:54:04;1.33;;;1.27;;
7667;SDS011;3876;42.204;24.686;2023-08-31T03:56:31;1.07;;;1.07;;
7667;SDS011;3876;42.204;24.686;2023-08-31T03:59:01;0.70;;;0.70;;
7667;SDS011;3876;42.204;24.686;2023-08-31T04:01:29;1.13;;;1.13;;
7667;SDS011;3876;42.204;24.686;2023-08-31T04:03:56;0.93;;;0.93;;
7667;SDS011;3876;42.204;24.686;2023-08-31T04:06:23;0.90;;;0.90;;
7667;SDS011;3876;42.204;24.686;2023-08-31T04:08:49;1.10;;;1.00;;
7667;SDS011;3876;42.204;24.686;2023-08-31T04:11:16;5.57;;;1.00;;
7667;SDS011;3876;42.204;24.686;2023-08-31T04:13:43;5.83;;;1.33;;
7667;SDS011;3876;42.204;24.686;2023-08-31T04:16:11;1.20;;;1.20;;
7667;SDS011;3876;42.204;24.686;2023-08-31T04:18:38;1.40;;;1.40;;
7667;SDS011;3876;42.204;24.686;2023-08-31T04:21:05;1.10;;;1.10;;
7667;SDS011;3876;42.204;24.686;2023-08-31T04:23:32;1.63;;;1.30;;
7667;SDS011;3876;42.204;24.686;2023-08-31T04:25:59;3.07;;;1.37;;
7667;SDS011;3876;42.204;24.686;2023-08-31T04:28:26;1.30;;;1.20;;
7667;SDS011;3876;42.204;24.686;2023-08-31T04:30:53;1.33;;;1.17;;
7667;SDS011;3876;42.204;24.686;2023-08-31T04:33:21;1.10;;;1.00;;
7667;SDS011;3876;42.204;24.686;2023-08-31T04:35:47;1.23;;;1.23;;
7667;SDS011;3876;42.204;24.686;2023-08-31T04:38:14;1.17;;;1.07;;
7667;SDS011;3876;42.204;24.686;2023-08-31T04:40:42;1.17;;;1.10;;
7667;SDS011;3876;42.204;24.686;2023-08-31T04:43:08;1.23;;;0.87;;
7667;SDS011;3876;42.204;24.686;2023-08-31T04:45:35;1.10;;;1.00;;
7667;SDS011;3876;42.204;24.686;2023-08-31T04:48:02;1.57;;;1.53;;
7667;SDS011;3876;42.204;24.686;2023-08-31T04:50:31;0.93;;;0.93;;
7667;SDS011;3876;42.204;24.686;2023-08-31T04:52:58;1.00;;;0.80;;
7667;SDS011;3876;42.204;24.686;2023-08-31T04:55:25;1.00;;;1.00;;
7667;SDS011;3876;42.204;24.686;2023-08-31T04:57:54;1.10;;;1.10;;
7667;SDS011;3876;42.204;24.686;2023-08-31T05:00:22;5.20;;;1.07;;
7667;SDS011;3876;42.204;24.686;2023-08-31T05:02:49;1.77;;;1.00;;
7667;SDS011;3876;42.204;24.686;2023-08-31T05:05:16;1.03;;;1.03;;
7667;SDS011;3876;42.204;24.686;2023-08-31T05:07:45;1.33;;;1.23;;
7667;SDS011;3876;42.204;24.686;2023-08-31T05:10:13;1.07;;;0.97;;
7667;SDS011;3876;42.204;24.686;2023-08-31T05:12:40;1.10;;;1.10;;
7667;SDS011;3876;42.204;24.686;2023-08-31T05:15:07;0.70;;;0.70;;
7667;SDS011;3876;42.204;24.686;2023-08-31T05:17:34;0.70;;;0.70;;
7667;SDS011;3876;42.204;24.686;2023-08-31T05:20:01;0.93;;;0.93;;
7667;SDS011;3876;42.204;24.686;2023-08-31T05:22:30;0.70;;;0.70;;
7667;SDS011;3876;42.204;24.686;2023-08-31T05:24:58;1.80;;;1.10;;
7667;SDS011;3876;42.204;24.686;2023-08-31T05:27:25;0.80;;;0.80;;
7667;SDS011;3876;42.204;24.686;2023-08-31T05:29:52;0.60;;;0.60;;
7667;SDS011;3876;42.204;24.686;2023-08-31T05:32:19;2.10;;;1.07;;
7667;SDS011;3876;42.204;24.686;2023-08-31T05:34:46;0.80;;;0.80;;
7667;SDS011;3876;42.204;24.686;2023-08-31T05:37:12;1.57;;;1.13;;
7667;SDS011;3876;42.204;24.686;2023-08-31T05:39:39;2.83;;;0.90;;
7667;SDS011;3876;42.204;24.686;2023-08-31T05:42:07;0.73;;;0.73;;
7667;SDS011;3876;42.204;24.686;2023-08-31T05:44:34;0.90;;;0.90;;
7667;SDS011;3876;42.204;24.686;2023-08-31T05:47:01;0.63;;;0.63;;
7667;SDS011;3876;42.204;24.686;2023-08-31T05:49:28;0.93;;;0.93;;
7667;SDS011;3876;42.204;24.686;2023-08-31T05:51:55;1.07;;;0.97;;
7667;SDS011;3876;42.204;24.686;2023-08-31T05:54:22;1.10;;;1.10;;
7667;SDS011;3876;42.204;24.686;2023-08-31T05:56:49;2.33;;;0.90;;
7667;SDS011;3876;42.204;24.686;2023-08-31T05:59:17;1.00;;;1.00;;
7667;SDS011;3876;42.204;24.686;2023-08-31T06:01:43;0.60;;;0.60;;
7667;SDS011;3876;42.204;24.686;2023-08-31T06:04:10;0.90;;;0.90;;
7667;SDS011;3876;42.204;24.686;2023-08-31T06:06:37;0.87;;;0.87;;
7667;SDS011;3876;42.204;24.686;2023-08-31T06:09:04;0.70;;;0.70;;
7667;SDS011;3876;42.204;24.686;2023-08-31T06:11:31;0.83;;;0.83;;
7667;SDS011;3876;42.204;24.686;2023-08-31T06:13:58;0.77;;;0.77;;
7667;SDS011;3876;42.204;24.686;2023-08-31T06:16:26;0.93;;;0.93;;
7667;SDS011;3876;42.204;24.686;2023-08-31T06:18:53;0.70;;;0.70;;
7667;SDS011;3876;42.204;24.686;2023-08-31T06:21:19;0.93;;;0.80;;
7667;SDS011;3876;42.204;24.686;2023-08-31T06:23:46;2.00;;;0.70;;
7667;SDS011;3876;42.204;24.686;2023-08-31T06:26:13;0.90;;;0.90;;
7667;SDS011;3876;42.204;24.686;2023-08-31T06:28:40;1.70;;;0.70;;
7667;SDS011;3876;42.204;24.686;2023-08-31T06:31:07;2.90;;;1.03;;
7667;SDS011;3876;42.204;24.686;2023-08-31T06:33:35;0.80;;;0.80;;
7667;SDS011;3876;42.204;24.686;2023-08-31T06:36:02;3.33;;;0.90;;
7667;SDS011;3876;42.204;24.686;2023-08-31T06:38:29;0.70;;;0.70;;
7667;SDS011;3876;42.204;24.686;2023-08-31T06:40:56;1.03;;;1.03;;
7667;SDS011;3876;42.204;24.686;2023-08-31T06:43:24;0.67;;;0.67;;
7667;SDS011;3876;42.204;24.686;2023-08-31T06:45:52;0.97;;;0.90;;
7667;SDS011;3876;42.204;24.686;2023-08-31T06:48:19;0.80;;;0.60;;
7667;SDS011;3876;42.204;24.686;2023-08-31T06:50:48;1.03;;;0.80;;
7667;SDS011;3876;42.204;24.686;2023-08-31T06:53:15;0.80;;;0.80;;
7667;SDS011;3876;42.204;24.686;2023-08-31T06:55:43;1.50;;;0.50;;
7667;SDS011;3876;42.204;24.686;2023-08-31T06:58:11;0.75;;;0.75;;
7667;SDS011;3876;42.204;24.686;2023-08-31T07:00:38;1.10;;;0.70;;
7667;SDS011;3876;42.204;24.686;2023-08-31T07:03:04;0.52;;;0.50;;
7667;SDS011;3876;42.204;24.686;2023-08-31T07:05:32;0.68;;;0.68;;
7667;SDS011;3876;42.204;24.686;2023-08-31T07:08:03;1.40;;;0.73;;
7667;SDS011;3876;42.204;24.686;2023-08-31T07:10:30;1.25;;;0.60;;
7667;SDS011;3876;42.204;24.686;2023-08-31T07:12:57;0.40;;;0.40;;
7667;SDS011;3876;42.204;24.686;2023-08-31T07:15:25;0.60;;;0.60;;
7667;SDS011;3876;42.204;24.686;2023-08-31T07:18:01;0.60;;;0.60;;
7667;SDS011;3876;42.204;24.686;2023-08-31T07:20:32;0.52;;;0.50;;
7667;SDS011;3876;42.204;24.686;2023-08-31T07:22:58;1.00;;;0.50;;
7667;SDS011;3876;42.204;24.686;2023-08-31T07:25:27;0.73;;;0.43;;
7667;SDS011;3876;42.204;24.686;2023-08-31T07:27:56;1.17;;;0.80;;
7667;SDS011;3876;42.204;24.686;2023-08-31T07:30:23;0.43;;;0.40;;
7667;SDS011;3876;42.204;24.686;2023-08-31T07:32:51;0.90;;;0.50;;
7667;SDS011;3876;42.204;24.686;2023-08-31T07:35:18;0.50;;;0.43;;
7667;SDS011;3876;42.204;24.686;2023-08-31T07:37:44;0.55;;;0.55;;
7667;SDS011;3876;42.204;24.686;2023-08-31T07:40:11;0.60;;;0.60;;
7667;SDS011;3876;42.204;24.686;2023-08-31T07:42:40;0.40;;;0.40;;
7667;SDS011;3876;42.204;24.686;2023-08-31T07:45:07;0.90;;;0.40;;
7667;SDS011;3876;42.204;24.686;2023-08-31T07:47:34;1.23;;;0.38;;
7667;SDS011;3876;42.204;24.686;2023-08-31T07:50:02;1.23;;;0.60;;
7667;SDS011;3876;42.204;24.686;2023-08-31T07:52:30;0.75;;;0.75;;
7667;SDS011;3876;42.204;24.686;2023-08-31T07:54:59;0.28;;;0.28;;
7667;SDS011;3876;42.204;24.686;2023-08-31T07:57:26;0.68;;;0.68;;
7667;SDS011;3876;42.204;24.686;2023-08-31T07:59:55;0.30;;;0.30;;
7667;SDS011;3876;42.204;24.686;2023-08-31T08:02:22;0.50;;;0.50;;
7667;SDS011;3876;42.204;24.686;2023-08-31T08:04:49;0.63;;;0.50;;
7667;SDS011;3876;42.204;24.686;2023-08-31T08:07:17;0.30;;;0.30;;
7667;SDS011;3876;42.204;24.686;2023-08-31T08:09:44;0.52;;;0.52;;
7667;SDS011;3876;42.204;24.686;2023-08-31T08:12:11;0.68;;;0.52;;
7667;SDS011;3876;42.204;24.686;2023-08-31T08:14:39;0.47;;;0.47;;
7667;SDS011;3876;42.204;24.686;2023-08-31T08:17:07;0.50;;;0.50;;
7667;SDS011;3876;42.204;24.686;2023-08-31T08:19:34;0.40;;;0.40;;
7667;SDS011;3876;42.204;24.686;2023-08-31T08:22:00;1.20;;;0.60;;
7667;SDS011;3876;42.204;24.686;2023-08-31T08:24:28;0.50;;;0.50;;
7667;SDS011;3876;42.204;24.686;2023-08-31T08:26:55;0.60;;;0.60;;
7667;SDS011;3876;42.204;24.686;2023-08-31T08:29:22;0.65;;;0.65;;
7667;SDS011;3876;42.204;24.686;2023-08-31T08:31:49;2.55;;;0.40;;
7667;SDS011;3876;42.204;24.686;2023-08-31T08:34:17;0.68;;;0.55;;
7667;SDS011;3876;42.204;24.686;2023-08-31T08:36:43;0.60;;;0.60;;
7667;SDS011;3876;42.204;24.686;2023-08-31T08:39:10;0.20;;;0.20;;
7667;SDS011;3876;42.204;24.686;2023-08-31T08:41:37;0.40;;;0.40;;
7667;SDS011;3876;42.204;24.686;2023-08-31T08:44:05;0.40;;;0.40;;
7667;SDS011;3876;42.204;24.686;2023-08-31T08:46:34;0.45;;;0.45;;
7667;SDS011;3876;42.204;24.686;2023-08-31T08:49:02;0.30;;;0.30;;
7667;SDS011;3876;42.204;24.686;2023-08-31T08:51:32;0.43;;;0.43;;
7667;SDS011;3876;42.204;24.686;2023-08-31T08:53:59;6.30;;;1.27;;
7667;SDS011;3876;42.204;24.686;2023-08-31T08:56:28;2.30;;;0.93;;
7667;SDS011;3876;42.204;24.686;2023-08-31T08:58:55;0.90;;;0.85;;
7667;SDS011;3876;42.204;24.686;2023-08-31T09:01:22;0.50;;;0.50;;
7667;SDS011;3876;42.204;24.686;2023-08-31T09:03:49;0.75;;;0.75;;
7667;SDS011;3876;42.204;24.686;2023-08-31T09:06:17;1.00;;;0.50;;
7667;SDS011;3876;42.204;24.686;2023-08-31T09:08:52;0.60;;;0.60;;
7667;SDS011;3876;42.204;24.686;2023-08-31T09:11:20;0.47;;;0.47;;
7667;SDS011;3876;42.204;24.686;2023-08-31T09:13:47;0.32;;;0.32;;
7667;SDS011;3876;42.204;24.686;2023-08-31T09:16:23;2.50;;;0.52;;
7667;SDS011;3876;42.204;24.686;2023-08-31T09:18:53;0.68;;;0.60;;
7667;SDS011;3876;42.204;24.686;2023-08-31T09:21:21;0.50;;;0.50;;
7667;SDS011;3876;42.204;24.686;2023-08-31T09:23:56;1.85;;;0.55;;
7667;SDS011;3876;42.204;24.686;2023-08-31T09:26:23;0.60;;;0.60;;
7667;SDS011;3876;42.204;24.686;2023-08-31T09:28:50;0.40;;;0.40;;
7667;SDS011;3876;42.204;24.686;2023-08-31T09:31:20;0.90;;;0.90;;
7667;SDS011;3876;42.204;24.686;2023-08-31T09:33:55;0.38;;;0.38;;
7667;SDS011;3876;42.204;24.686;2023-08-31T09:36:22;0.55;;;0.50;;
7667;SDS011;3876;42.204;24.686;2023-08-31T09:38:49;0.52;;;0.52;;
7667;SDS011;3876;42.204;24.686;2023-08-31T09:41:17;0.50;;;0.50;;
7667;SDS011;3876;42.204;24.686;2023-08-31T09:43:44;0.60;;;0.60;;
7667;SDS011;3876;42.204;24.686;2023-08-31T09:46:10;1.75;;;0.52;;
7667;SDS011;3876;42.204;24.686;2023-08-31T09:48:38;0.60;;;0.60;;
7667;SDS011;3876;42.204;24.686;2023-08-31T09:51:07;0.40;;;0.40;;
7667;SDS011;3876;42.204;24.686;2023-08-31T09:53:37;0.80;;;0.80;;
7667;SDS011;3876;42.204;24.686;2023-08-31T09:56:04;0.45;;;0.45;;
7667;SDS011;3876;42.204;24.686;2023-08-31T09:58:33;0.65;;;0.65;;
7667;SDS011;3876;42.204;24.686;2023-08-31T10:01:00;0.50;;;0.50;;
7667;SDS011;3876;42.204;24.686;2023-08-31T10:03:27;0.77;;;0.43;;
7667;SDS011;3876;42.204;24.686;2023-08-31T10:05:55;0.38;;;0.38;;
7667;SDS011;3876;42.204;24.686;2023-08-31T10:08:22;0.50;;;0.50;;
7667;SDS011;3876;42.204;24.686;2023-08-31T10:10:51;0.88;;;0.70;;
7667;SDS011;3876;42.204;24.686;2023-08-31T10:13:19;0.47;;;0.47;;
7667;SDS011;3876;42.204;24.686;2023-08-31T10:15:49;0.77;;;0.43;;
7667;SDS011;3876;42.204;24.686;2023-08-31T10:18:16;0.40;;;0.40;;
7667;SDS011;3876;42.204;24.686;2023-08-31T10:20:44;0.68;;;0.40;;
7667;SDS011;3876;42.204;24.686;2023-08-31T10:23:11;0.38;;;0.38;;
7667;SDS011;3876;42.204;24.686;2023-08-31T10:28:28;0.40;;;0.40;;
7667;SDS011;3876;42.204;24.686;2023-08-31T10:31:04;0.50;;;0.50;;
7667;SDS011;3876;42.204;24.686;2023-08-31T10:33:32;0.80;;;0.50;;
7667;SDS011;3876;42.204;24.686;2023-08-31T10:36:00;0.68;;;0.50;;
7667;SDS011;3876;42.204;24.686;2023-08-31T10:38:27;0.90;;;0.70;;
7667;SDS011;3876;42.204;24.686;2023-08-31T10:40:59;0.70;;;0.70;;
7667;SDS011;3876;42.204;24.686;2023-08-31T10:43:44;0.40;;;0.40;;
7667;SDS011;3876;42.204;24.686;2023-08-31T10:46:16;0.80;;;0.63;;
7667;SDS011;3876;42.204;24.686;2023-08-31T10:48:50;0.80;;;0.80;;
7667;SDS011;3876;42.204;24.686;2023-08-31T10:51:18;1.85;;;0.60;;
7667;SDS011;3876;42.204;24.686;2023-08-31T10:53:47;0.45;;;0.45;;
7667;SDS011;3876;42.204;24.686;2023-08-31T10:56:15;0.50;;;0.50;;
7667;SDS011;3876;42.204;24.686;2023-08-31T10:58:42;0.55;;;0.40;;
7667;SDS011;3876;42.204;24.686;2023-08-31T11:01:10;0.50;;;0.50;;
7667;SDS011;3876;42.204;24.686;2023-08-31T11:06:36;0.40;;;0.40;;
7667;SDS011;3876;42.204;24.686;2023-08-31T11:09:03;0.65;;;0.65;;
7667;SDS011;3876;42.204;24.686;2023-08-31T11:11:37;0.60;;;0.60;;
7667;SDS011;3876;42.204;24.686;2023-08-31T11:14:04;1.88;;;0.60;;
7667;SDS011;3876;42.204;24.686;2023-08-31T11:16:30;0.60;;;0.60;;
7667;SDS011;3876;42.204;24.686;2023-08-31T11:18:57;0.50;;;0.50;;
7667;SDS011;3876;42.204;24.686;2023-08-31T11:21:26;1.58;;;0.60;;
7667;SDS011;3876;42.204;24.686;2023-08-31T11:23:52;0.60;;;0.60;;
7667;SDS011;3876;42.204;24.686;2023-08-31T11:26:22;0.60;;;0.60;;
7667;SDS011;3876;42.204;24.686;2023-08-31T11:28:50;0.70;;;0.70;;
7667;SDS011;3876;42.204;24.686;2023-08-31T11:31:22;2.08;;;0.80;;
7667;SDS011;3876;42.204;24.686;2023-08-31T11:33:50;0.65;;;0.65;;
7667;SDS011;3876;42.204;24.686;2023-08-31T11:36:19;0.30;;;0.30;;
7667;SDS011;3876;42.204;24.686;2023-08-31T11:38:48;0.47;;;0.47;;
7667;SDS011;3876;42.204;24.686;2023-08-31T11:41:16;0.50;;;0.50;;
7667;SDS011;3876;42.204;24.686;2023-08-31T11:43:43;0.63;;;0.63;;
7667;SDS011;3876;42.204;24.686;2023-08-31T11:46:10;0.43;;;0.43;;
7667;SDS011;3876;42.204;24.686;2023-08-31T11:48:38;0.88;;;0.65;;
7667;SDS011;3876;42.204;24.686;2023-08-31T11:51:05;0.50;;;0.50;;
7667;SDS011;3876;42.204;24.686;2023-08-31T11:53:33;0.40;;;0.40;;
7667;SDS011;3876;42.204;24.686;2023-08-31T11:56:02;0.75;;;0.75;;
7667;SDS011;3876;42.204;24.686;2023-08-31T11:58:29;0.60;;;0.60;;
7667;SDS011;3876;42.204;24.686;2023-08-31T12:00:56;0.70;;;0.70;;
7667;SDS011;3876;42.204;24.686;2023-08-31T12:03:24;0.50;;;0.50;;
7667;SDS011;3876;42.204;24.686;2023-08-31T12:05:52;0.50;;;0.50;;
7667;SDS011;3876;42.204;24.686;2023-08-31T12:08:25;0.68;;;0.68;;
7667;SDS011;3876;42.204;24.686;2023-08-31T12:10:52;0.50;;;0.50;;
7667;SDS011;3876;42.204;24.686;2023-08-31T12:13:25;0.50;;;0.40;;
7667;SDS011;3876;42.204;24.686;2023-08-31T12:15:53;0.55;;;0.50;;
7667;SDS011;3876;42.204;24.686;2023-08-31T12:18:21;0.50;;;0.50;;
7667;SDS011;3876;42.204;24.686;2023-08-31T12:20:49;0.55;;;0.55;;
7667;SDS011;3876;42.204;24.686;2023-08-31T12:23:16;0.52;;;0.52;;
7667;SDS011;3876;42.204;24.686;2023-08-31T12:25:47;0.60;;;0.60;;
7667;SDS011;3876;42.204;24.686;2023-08-31T12:28:14;0.73;;;0.60;;
7667;SDS011;3876;42.204;24.686;2023-08-31T12:30:48;0.50;;;0.50;;
7667;SDS011;3876;42.204;24.686;2023-08-31T12:33:15;1.35;;;0.90;;
7667;SDS011;3876;42.204;24.686;2023-08-31T12:35:42;0.85;;;0.85;;
7667;SDS011;3876;42.204;24.686;2023-08-31T12:38:09;0.50;;;0.50;;
7667;SDS011;3876;42.204;24.686;2023-08-31T12:40:36;0.90;;;0.68;;
7667;SDS011;3876;42.204;24.686;2023-08-31T12:43:05;0.60;;;0.60;;
7667;SDS011;3876;42.204;24.686;2023-08-31T12:45:32;2.20;;;0.90;;
7667;SDS011;3876;42.204;24.686;2023-08-31T12:48:01;0.70;;;0.70;;
7667;SDS011;3876;42.204;24.686;2023-08-31T12:50:28;0.60;;;0.60;;
7667;SDS011;3876;42.204;24.686;2023-08-31T12:52:56;0.68;;;0.68;;
7667;SDS011;3876;42.204;24.686;2023-08-31T12:55:24;0.60;;;0.60;;
7667;SDS011;3876;42.204;24.686;2023-08-31T12:57:50;0.80;;;0.80;;
7667;SDS011;3876;42.204;24.686;2023-08-31T13:00:18;1.10;;;1.00;;
7667;SDS011;3876;42.204;24.686;2023-08-31T13:02:45;0.80;;;0.70;;
7667;SDS011;3876;42.204;24.686;2023-08-31T13:05:13;0.47;;;0.47;;
7667;SDS011;3876;42.204;24.686;2023-08-31T13:07:40;0.52;;;0.52;;
7667;SDS011;3876;42.204;24.686;2023-08-31T13:10:08;1.73;;;0.73;;
7667;SDS011;3876;42.204;24.686;2023-08-31T13:12:35;3.60;;;0.75;;
7667;SDS011;3876;42.204;24.686;2023-08-31T13:15:02;0.60;;;0.60;;
7667;SDS011;3876;42.204;24.686;2023-08-31T13:17:30;2.25;;;0.93;;
7667;SDS011;3876;42.204;24.686;2023-08-31T13:19:57;1.13;;;1.13;;
7667;SDS011;3876;42.204;24.686;2023-08-31T13:22:25;0.77;;;0.77;;
7667;SDS011;3876;42.204;24.686;2023-08-31T13:24:52;0.88;;;0.88;;
7667;SDS011;3876;42.204;24.686;2023-08-31T13:27:19;0.88;;;0.88;;
7667;SDS011;3876;42.204;24.686;2023-08-31T13:29:46;2.33;;;1.80;;
7667;SDS011;3876;42.204;24.686;2023-08-31T13:32:13;0.70;;;0.70;;
7667;SDS011;3876;42.204;24.686;2023-08-31T13:34:39;2.10;;;0.65;;
7667;SDS011;3876;42.204;24.686;2023-08-31T13:37:06;0.77;;;0.77;;
7667;SDS011;3876;42.204;24.686;2023-08-31T13:39:35;0.70;;;0.70;;
7667;SDS011;3876;42.204;24.686;2023-08-31T13:42:05;0.70;;;0.70;;
7667;SDS011;3876;42.204;24.686;2023-08-31T13:44:32;1.85;;;0.70;;
7667;SDS011;3876;42.204;24.686;2023-08-31T13:47:00;1.33;;;0.68;;
7667;SDS011;3876;42.204;24.686;2023-08-31T13:49:30;0.63;;;0.60;;
7667;SDS011;3876;42.204;24.686;2023-08-31T13:52:00;0.52;;;0.52;;
7667;SDS011;3876;42.204;24.686;2023-08-31T13:54:30;0.77;;;0.77;;
7667;SDS011;3876;42.204;24.686;2023-08-31T13:56:59;0.55;;;0.55;;
7667;SDS011;3876;42.204;24.686;2023-08-31T13:59:27;0.75;;;0.63;;
7667;SDS011;3876;42.204;24.686;2023-08-31T14:01:54;1.15;;;0.88;;
7667;SDS011;3876;42.204;24.686;2023-08-31T14:04:21;1.55;;;0.60;;
7667;SDS011;3876;42.204;24.686;2023-08-31T14:06:48;0.43;;;0.43;;
7667;SDS011;3876;42.204;24.686;2023-08-31T14:09:14;0.60;;;0.60;;
7667;SDS011;3876;42.204;24.686;2023-08-31T14:11:42;1.70;;;0.50;;
7667;SDS011;3876;42.204;24.686;2023-08-31T14:14:10;0.50;;;0.50;;
7667;SDS011;3876;42.204;24.686;2023-08-31T14:16:37;0.80;;;0.80;;
7667;SDS011;3876;42.204;24.686;2023-08-31T14:19:04;2.05;;;0.85;;
7667;SDS011;3876;42.204;24.686;2023-08-31T14:21:31;2.22;;;1.15;;
7667;SDS011;3876;42.204;24.686;2023-08-31T14:23:58;1.65;;;0.93;;
7667;SDS011;3876;42.204;24.686;2023-08-31T14:26:24;1.00;;;0.85;;
7667;SDS011;3876;42.204;24.686;2023-08-31T14:28:51;0.82;;;0.82;;
7667;SDS011;3876;42.204;24.686;2023-08-31T14:31:19;0.65;;;0.65;;
7667;SDS011;3876;42.204;24.686;2023-08-31T14:33:47;0.90;;;0.70;;
7667;SDS011;3876;42.204;24.686;2023-08-31T14:36:14;0.65;;;0.65;;
7667;SDS011;3876;42.204;24.686;2023-08-31T14:38:42;1.00;;;0.90;;
7667;SDS011;3876;42.204;24.686;2023-08-31T14:41:10;1.02;;;0.93;;
7667;SDS011;3876;42.204;24.686;2023-08-31T14:43:37;1.30;;;1.00;;
7667;SDS011;3876;42.204;24.686;2023-08-31T14:46:04;0.63;;;0.55;;
7667;SDS011;3876;42.204;24.686;2023-08-31T14:48:33;4.20;;;1.08;;
7667;SDS011;3876;42.204;24.686;2023-08-31T14:50:59;0.65;;;0.65;;
7667;SDS011;3876;42.204;24.686;2023-08-31T14:53:26;0.75;;;0.75;;
7667;SDS011;3876;42.204;24.686;2023-08-31T14:55:53;1.27;;;1.00;;
7667;SDS011;3876;42.204;24.686;2023-08-31T14:58:20;1.10;;;0.65;;
7667;SDS011;3876;42.204;24.686;2023-08-31T15:00:47;4.47;;;0.90;;
7667;SDS011;3876;42.204;24.686;2023-08-31T15:03:14;1.02;;;0.93;;
7667;SDS011;3876;42.204;24.686;2023-08-31T15:05:42;2.65;;;1.15;;
7667;SDS011;3876;42.204;24.686;2023-08-31T15:08:09;2.33;;;1.08;;
7667;SDS011;3876;42.204;24.686;2023-08-31T15:10:37;0.80;;;0.80;;